Time;durP1;ratioP1;P1;durP2;ratioP2;P2;SDS_P1;SDS_P2;PMS_P1;PMS_P2;Temp;Humidity;BMP_temperature;BMP_pressure;BME280_temperature;BME280_humidity;BME280_pressure;Samples;Min_cycle;Max_cycle;Signal;HPM_P1;HPM_P2
2021/04/25 00:00:19;;;;;;;16.00;7.78;;;;;;;8.42;41.32;100563.91;1703251;82;21189;-84
2021/04/25 00:02:47;;;;;;;14.70;8.20;;;;;;;8.36;41.56;100572.33;1724174;82;21213;-85
2021/04/25 00:05:17;;;;;;;18.98;8.73;;;;;;;8.41;41.48;100572.78;1724153;82;22008;-87
2021/04/25 00:07:48;;;;;;;17.55;8.98;;;;;;;8.41;41.64;100566.20;1725512;82;22293;-85
2021/04/25 00:10:17;;;;;;;18.50;8.75;;;;;;;8.29;41.96;100571.20;1719459;82;21177;-83
2021/04/25 00:12:44;;;;;;;17.70;9.25;;;;;;;8.29;42.11;100568.57;1723732;82;21209;-83
2021/04/25 00:15:22;;;;;;;18.65;9.23;;;;;;;8.25;42.19;100570.15;1723524;82;21157;-83
2021/04/25 00:17:53;;;;;;;18.00;9.15;;;;;;;8.26;42.29;100567.02;1735908;80;21310;-87
2021/04/25 00:20:22;;;;;;;20.70;9.28;;;;;;;8.21;42.37;100566.10;1738172;80;21652;-86
2021/04/25 00:22:53;;;;;;;21.37;9.10;;;;;;;8.25;42.37;100568.83;1730788;81;21194;-85
2021/04/25 00:25:24;;;;;;;20.48;9.50;;;;;;;8.22;42.56;100560.38;1733736;81;21204;-84
2021/04/25 00:27:50;;;;;;;18.73;9.50;;;;;;;8.25;42.58;100560.11;1738439;81;21220;-83
2021/04/25 00:30:19;;;;;;;19.62;9.50;;;;;;;8.12;43.11;100561.62;1678777;82;21939;-84
2021/04/25 00:32:47;;;;;;;19.82;9.55;;;;;;;7.96;43.71;100556.00;1731472;81;21632;-83
2021/04/25 00:35:15;;;;;;;20.97;9.73;;;;;;;7.86;44.07;100558.55;1734991;80;21151;-83
2021/04/25 00:37:42;;;;;;;18.37;9.55;;;;;;;7.88;44.08;100550.90;1736977;82;21216;-85
2021/04/25 00:40:12;;;;;;;22.37;10.45;;;;;;;7.75;44.42;100544.98;1705681;82;21201;-85
2021/04/25 00:42:38;;;;;;;21.33;10.32;;;;;;;7.58;44.88;100543.76;1732224;81;21286;-83
2021/04/25 00:45:09;;;;;;;22.73;10.88;;;;;;;7.53;45.35;100542.83;1726463;82;21252;-83
2021/04/25 00:47:35;;;;;;;23.98;11.28;;;;;;;7.51;45.40;100544.75;1706556;82;21292;-83
2021/04/25 00:50:01;;;;;;;23.87;11.10;;;;;;;7.39;45.95;100540.50;1734157;81;21185;-84
2021/04/25 00:52:30;;;;;;;28.05;11.95;;;;;;;7.33;46.33;100541.01;1733869;82;26751;-84
2021/04/25 00:54:59;;;;;;;25.10;12.15;;;;;;;7.17;47.14;100543.56;1730363;82;21215;-85
2021/04/25 00:57:27;;;;;;;26.45;12.40;;;;;;;7.21;47.34;100547.26;1729626;82;21648;-84
2021/04/25 00:59:53;;;;;;;;;;;;;;;7.20;47.50;100542.50;1735795;81;21165;-83
2021/04/25 01:02:20;;;;;;;25.85;12.25;;;;;;;7.18;47.56;100542.63;1733269;80;21012;-85
2021/04/25 01:04:47;;;;;;;23.18;11.70;;;;;;;7.25;47.55;100546.89;1733834;81;21222;-86
2021/04/25 01:07:15;;;;;;;;;;;;;;;7.24;47.46;100538.67;1739749;81;21198;-84
2021/04/25 01:09:41;;;;;;;;;;;;;;;7.18;47.79;100539.17;1737675;82;20357;-83
2021/04/25 01:12:08;;;;;;;23.33;10.83;;;;;;;7.11;47.88;100545.37;1732452;82;20291;-84
2021/04/25 01:14:34;;;;;;;27.93;12.43;;;;;;;7.10;47.69;100533.69;1731045;82;22132;-83
2021/04/25 01:17:01;;;;;;;29.67;13.32;;;;;;;6.95;48.37;100532.66;1731446;81;27365;-85
2021/04/25 01:19:28;;;;;;;27.40;13.32;;;;;;;6.94;48.42;100537.55;1732929;81;21738;-82
2021/04/25 01:21:56;;;;;;;25.07;13.00;;;;;;;7.00;48.12;100533.59;1732494;81;25957;-83
2021/04/25 01:24:21;;;;;;;28.67;13.83;;;;;;;7.04;48.17;100535.03;1731530;82;21157;-82
2021/04/25 01:26:47;;;;;;;25.02;13.15;;;;;;;6.96;48.24;100534.80;1730842;82;28413;-82
2021/04/25 01:29:13;;;;;;;26.50;13.35;;;;;;;6.93;48.47;100535.04;1730262;81;26778;-82
2021/04/25 01:31:39;;;;;;;26.87;12.50;;;;;;;7.06;48.01;100532.28;1733405;80;21992;-82
2021/04/25 01:34:04;;;;;;;27.97;13.83;;;;;;;6.97;48.17;100528.59;1736350;82;24858;-82
2021/04/25 01:36:33;;;;;;;27.63;12.80;;;;;;;6.96;48.26;100530.40;1702988;82;21562;-82
2021/04/25 01:39:07;;;;;;;24.32;12.98;;;;;;;6.95;48.60;100522.64;1705717;82;21182;-82
2021/04/25 01:41:36;;;;;;;26.90;12.80;;;;;;;7.04;48.18;100519.28;1733410;82;22191;-83
2021/04/25 01:44:03;;;;;;;25.65;13.15;;;;;;;7.05;48.29;100519.61;1706092;82;21897;-82
2021/04/25 01:46:30;;;;;;;29.25;13.62;;;;;;;7.15;48.28;100517.91;1732033;81;21262;-83
2021/04/25 01:48:57;;;;;;;30.02;13.75;;;;;;;7.08;48.40;100518.05;1734109;81;21196;-82
2021/04/25 01:51:25;;;;;;;30.85;13.58;;;;;;;7.12;48.27;100508.97;1733872;81;21230;-82
2021/04/25 01:53:52;;;;;;;;;;;;;;;7.14;48.08;100513.61;1735200;81;21118;-83
2021/04/25 01:56:19;;;;;;;;;;;;;;;7.06;48.58;100512.09;1740157;81;21138;-82
2021/04/25 01:58:47;;;;;;;32.65;13.98;;;;;;;7.06;48.70;100512.59;1732685;80;20296;-83
2021/04/25 02:01:12;;;;;;;30.97;14.35;;;;;;;7.08;48.22;100510.17;1734713;80;21228;-84
2021/04/25 02:03:40;;;;;;;30.57;13.88;;;;;;;7.04;48.25;100496.95;1730490;82;29562;-82
2021/04/25 02:06:06;;;;;;;;;;;;;;;7.15;47.96;100494.28;1737640;82;21247;-83
2021/04/25 02:08:33;;;;;;;26.83;13.10;;;;;;;7.06;47.45;100495.03;1736296;81;21736;-83
2021/04/25 02:11:01;;;;;;;25.15;12.28;;;;;;;7.02;47.09;100500.16;1731995;81;21224;-85
2021/04/25 02:13:29;;;;;;;25.75;12.88;;;;;;;6.94;47.34;100503.90;1732360;82;21213;-82
2021/04/25 02:15:58;;;;;;;25.80;12.88;;;;;;;6.83;47.74;100502.95;1731985;82;21234;-82
2021/04/25 02:18:28;;;;;;;24.75;12.30;;;;;;;6.88;47.87;100493.41;1724437;82;21660;-83
2021/04/25 02:20:55;;;;;;;28.42;13.95;;;;;;;6.86;47.82;100502.38;1721666;82;21220;-83
2021/04/25 02:23:24;;;;;;;26.07;12.33;;;;;;;6.97;47.63;100495.77;1718750;81;21214;-84
2021/04/25 02:25:51;;;;;;;24.98;11.85;;;;;;;7.03;47.01;100493.97;1716885;81;21656;-83
2021/04/25 02:28:17;;;;;;;;;;;;;;;6.95;46.64;100499.02;1719594;82;21668;-83
2021/04/25 02:30:45;;;;;;;23.65;10.90;;;;;;;6.99;46.45;100496.02;1722673;82;20245;-84
2021/04/25 02:33:11;;;;;;;22.60;10.50;;;;;;;6.95;46.22;100491.96;1720316;81;21307;-85
2021/04/25 02:35:40;;;;;;;18.62;9.38;;;;;;;7.02;45.79;100492.28;1719130;82;21644;-85
2021/04/25 02:38:08;;;;;;;20.70;9.15;;;;;;;7.11;45.30;100486.29;1716225;83;21298;-85
2021/04/25 02:40:36;;;;;;;20.60;9.90;;;;;;;7.02;44.87;100493.60;1717542;82;21178;-85
2021/04/25 02:43:04;;;;;;;19.07;9.38;;;;;;;6.89;44.95;100500.33;1717906;82;21197;-85
2021/04/25 02:45:34;;;;;;;19.82;9.60;;;;;;;6.83;45.38;100504.27;1713654;83;21134;-85
2021/04/25 02:48:04;;;;;;;19.05;9.68;;;;;;;6.75;45.81;100497.50;1718227;81;21206;-86
2021/04/25 02:50:33;;;;;;;19.17;10.15;;;;;;;6.70;45.55;100502.30;1723050;82;21185;-86
2021/04/25 02:53:02;;;;;;;22.45;11.63;;;;;;;6.70;46.32;100506.23;1719220;82;21226;-85
2021/04/25 02:55:28;;;;;;;22.65;10.95;;;;;;;6.61;46.98;100517.45;1718333;83;21186;-84
2021/04/25 02:57:56;;;;;;;24.02;11.40;;;;;;;6.73;46.60;100503.36;1719412;82;21256;-85
2021/04/25 03:00:25;;;;;;;;;;;;;;;6.76;46.47;100495.24;1726041;81;21238;-84
2021/04/25 03:02:53;;;;;;;24.72;10.50;;;;;;;6.73;46.53;100495.98;1719197;83;20285;-85
2021/04/25 03:05:21;;;;;;;24.10;10.20;;;;;;;6.68;46.62;100504.22;1721935;83;21288;-84
2021/04/25 03:07:51;;;;;;;20.68;10.10;;;;;;;6.82;46.54;100504.39;1714350;83;21166;-85
2021/04/25 03:10:17;;;;;;;22.93;11.15;;;;;;;6.93;46.40;100506.16;1721164;82;21794;-85
2021/04/25 03:12:44;;;;;;;20.27;10.53;;;;;;;6.80;46.52;100504.52;1720444;81;21090;-85
2021/04/25 03:15:15;;;;;;;24.57;10.85;;;;;;;6.89;46.58;100508.70;1701104;83;21194;-85
2021/04/25 03:17:45;;;;;;;23.73;10.88;;;;;;;7.04;46.05;100498.27;1721573;82;21744;-84
2021/04/25 03:20:12;;;;;;;20.97;10.00;;;;;;;7.17;45.90;100501.55;1713614;81;21162;-85
2021/04/25 03:22:39;;;;;;;20.48;9.98;;;;;;;7.23;45.58;100494.14;1726369;82;22078;-85
2021/04/25 03:25:09;;;;;;;;;;;;;;;7.29;45.40;100489.70;1723921;82;21219;-84
2021/04/25 03:27:38;;;;;;;22.35;9.95;;;;;;;7.33;45.36;100506.40;1720324;82;20289;-84
2021/04/25 03:30:08;;;;;;;23.07;9.53;;;;;;;7.26;45.46;100495.20;1724621;82;21655;-85
2021/04/25 03:32:37;;;;;;;20.60;9.93;;;;;;;7.09;45.67;100496.09;1722359;81;21685;-85
2021/04/25 03:35:06;;;;;;;20.97;10.15;;;;;;;7.16;46.83;100497.27;1717092;82;21994;-85
2021/04/25 03:37:35;;;;;;;21.77;10.48;;;;;;;7.24;47.59;100493.16;1722938;82;21640;-84
2021/04/25 03:40:06;;;;;;;20.25;9.85;;;;;;;7.16;48.02;100494.64;1723636;81;22325;-85
2021/04/25 03:42:31;;;;;;;22.85;10.23;;;;;;;7.16;48.25;100493.33;1724779;82;21173;-84
2021/04/25 03:44:58;;;;;;;19.02;10.55;;;;;;;7.16;48.16;100495.95;1723944;81;26804;-84
2021/04/25 03:47:26;;;;;;;19.40;10.23;;;;;;;7.14;48.55;100496.54;1718389;81;21228;-84
2021/04/25 03:49:52;;;;;;;;;;;;;;;7.24;48.49;100494.48;1726369;81;21034;-84
2021/04/25 03:52:19;;;;;;;21.23;9.75;;;;;;;7.28;48.11;100499.84;1724243;82;20195;-84
2021/04/25 03:54:44;;;;;;;19.82;9.73;;;;;;;7.27;47.99;100495.53;1720767;82;21798;-85
2021/04/25 03:57:10;;;;;;;20.43;10.35;;;;;;;7.28;47.83;100495.91;1669426;82;26512;-85
2021/04/25 03:59:38;;;;;;;23.15;10.72;;;;;;;7.35;47.40;100497.90;1730385;81;21944;-85
2021/04/25 04:02:05;;;;;;;;;;;;;;;7.41;47.62;100498.34;1699126;82;21164;-85
2021/04/25 04:04:34;;;;;;;18.48;9.63;;;;;;;7.41;47.75;100499.66;1722714;82;20285;-85
2021/04/25 04:07:04;;;;;;;21.00;10.03;;;;;;;7.48;47.51;100493.77;1724187;82;21579;-85
2021/04/25 04:09:31;;;;;;;19.37;9.60;;;;;;;7.52;47.04;100492.56;1719060;82;21672;-86
2021/04/25 04:11:59;;;;;;;18.25;8.35;;;;;;;7.58;46.51;100494.31;1724472;82;21159;-84
2021/04/25 04:14:27;;;;;;;17.12;8.63;;;;;;;7.51;45.63;100496.14;1724368;82;21245;-84
2021/04/25 04:16:52;;;;;;;15.00;7.72;;;;;;;7.48;45.33;100497.70;1698574;82;21216;-85
2021/04/25 04:19:21;;;;;;;17.42;8.60;;;;;;;7.44;45.02;100501.57;1720771;81;21169;-84
2021/04/25 04:21:50;;;;;;;17.92;8.43;;;;;;;7.39;45.69;100494.53;1725236;81;21118;-84
2021/04/25 04:24:20;;;;;;;18.52;8.43;;;;;;;7.50;45.48;100494.49;1727871;81;22056;-84
2021/04/25 04:26:49;;;;;;;17.00;7.95;;;;;;;7.59;45.36;100503.38;1727174;82;21185;-84
2021/04/25 04:29:17;;;;;;;15.20;7.72;;;;;;;7.74;45.37;100505.22;1725653;82;21157;-84
2021/04/25 04:31:42;;;;;;;17.02;7.40;;;;;;;7.80;45.24;100506.48;1726911;81;21878;-85
2021/04/25 04:34:10;;;;;;;12.98;7.28;;;;;;;7.80;45.08;100503.39;1730176;81;26902;-86
2021/04/25 04:36:37;;;;;;;;;;;;;;;7.89;44.96;100506.56;1698464;82;21181;-86
2021/04/25 04:39:04;;;;;;;16.30;8.28;;;;;;;7.86;44.93;100505.50;1719343;81;20592;-86
2021/04/25 04:41:30;;;;;;;14.78;7.08;;;;;;;7.85;45.23;100501.20;1722657;81;21201;-86
2021/04/25 04:43:56;;;;;;;13.28;6.97;;;;;;;7.94;44.99;100501.37;1725810;82;28427;-86
2021/04/25 04:46:23;;;;;;;13.95;7.17;;;;;;;7.90;45.16;100506.89;1730232;82;26829;-86
2021/04/25 04:48:51;;;;;;;;;;;;;;;7.80;45.04;100511.28;1720520;82;21847;-85
2021/04/25 04:51:18;;;;;;;;;;;;;;;7.62;45.48;100507.56;1724532;82;20922;-87
2021/04/25 04:53:46;;;;;;;17.57;7.65;;;;;;;7.52;45.60;100507.02;1728466;81;20285;-79
2021/04/25 04:56:15;;;;;;;16.37;8.53;;;;;;;7.28;46.38;100504.61;1721616;82;21114;-80
2021/04/25 04:58:45;;;;;;;21.50;8.90;;;;;;;7.36;46.26;100511.40;1720601;81;21121;-79
2021/04/25 05:01:10;;;;;;;19.48;9.05;;;;;;;7.19;46.33;100510.16;1723122;81;21194;-83
2021/04/25 05:03:47;;;;;;;19.97;9.50;;;;;;;7.12;47.29;100511.60;1720854;82;24495;-85
2021/04/25 05:06:16;;;;;;;19.45;9.85;;;;;;;7.14;47.19;100507.53;1694781;82;21228;-86
2021/04/25 05:08:45;;;;;;;21.02;10.23;;;;;;;7.09;47.15;100514.48;1689678;82;21158;-86
2021/04/25 05:11:18;;;;;;;18.07;10.13;;;;;;;7.17;47.72;100508.59;1724233;81;21184;-86
2021/04/25 05:13:51;;;;;;;22.22;10.72;;;;;;;7.23;48.29;100509.91;1724710;81;21225;-88
2021/04/25 05:16:18;;;;;;;21.45;10.10;;;;;;;7.30;48.47;100512.36;1726050;81;21703;-85
2021/04/25 05:18:45;;;;;;;21.33;9.80;;;;;;;7.41;48.06;100512.33;1723076;81;26859;-86
2021/04/25 05:21:16;;;;;;;17.82;9.23;;;;;;;7.41;48.06;100512.33;1727752;81;21207;-87
2021/04/25 05:23:45;;;;;;;17.52;9.20;;;;;;;7.49;47.10;100519.09;1729635;81;21200;-87
2021/04/25 05:26:15;;;;;;;17.07;8.50;;;;;;;7.52;46.92;100514.89;1730891;81;21245;-86
2021/04/25 05:28:41;;;;;;;18.30;9.20;;;;;;;7.53;46.90;100515.23;1729978;81;21150;-86
2021/04/25 05:31:08;;;;;;;22.30;10.78;;;;;;;7.63;46.97;100513.15;1732173;81;24960;-84
2021/04/25 05:33:37;;;;;;;20.80;10.20;;;;;;;7.62;47.36;100515.45;1699324;82;21223;-86
2021/04/25 05:36:05;;;;;;;20.43;10.10;;;;;;;7.82;46.87;100508.03;1728811;81;21648;-83
2021/04/25 05:38:31;;;;;;;18.32;9.58;;;;;;;7.80;47.22;100508.65;1730201;82;21347;-82
2021/04/25 05:41:00;;;;;;;20.57;9.58;;;;;;;7.67;47.69;100508.00;1730512;81;27003;-82
2021/04/25 05:43:26;;;;;;;17.65;9.48;;;;;;;7.65;47.88;100509.94;1722803;81;21473;-84
2021/04/25 05:45:52;;;;;;;21.82;11.40;;;;;;;7.75;47.71;100510.81;1707876;82;28399;-79
2021/04/25 05:48:18;;;;;;;19.73;9.38;;;;;;;7.85;47.29;100506.45;1697694;82;26881;-82
2021/04/25 05:50:46;;;;;;;16.17;8.95;;;;;;;7.81;47.38;100512.92;1730372;81;21900;-85
2021/04/25 05:53:17;;;;;;;19.20;8.98;;;;;;;7.85;47.59;100509.09;1721393;82;21221;-84
2021/04/25 05:55:43;;;;;;;19.95;8.70;;;;;;;7.75;47.26;100515.25;1686458;84;21228;-84
2021/04/25 05:58:09;;;;;;;16.93;8.58;;;;;;;7.76;46.47;100507.23;1731621;82;28434;-84
2021/04/25 06:00:39;;;;;;;14.43;7.95;;;;;;;7.80;46.71;100504.70;1733433;81;21212;-84
2021/04/25 06:03:06;;;;;;;15.35;7.62;;;;;;;7.79;45.48;100510.92;1733464;81;21071;-86
2021/04/25 06:05:36;;;;;;;16.20;6.92;;;;;;;7.95;44.17;100513.56;1706184;82;21235;-83
2021/04/25 06:08:02;;;;;;;12.18;5.83;;;;;;;7.79;44.09;100504.34;1727891;82;21153;-80
2021/04/25 06:10:28;;;;;;;12.35;6.42;;;;;;;7.94;43.09;100503.54;1726216;81;21180;-86
2021/04/25 06:12:54;;;;;;;11.70;5.42;;;;;;;8.09;42.41;100510.59;1729698;82;26710;-83
2021/04/25 06:15:25;;;;;;;12.45;6.00;;;;;;;8.20;41.02;100505.72;1729302;82;21309;-82
2021/04/25 06:17:51;;;;;;;11.65;5.30;;;;;;;8.15;40.99;100502.17;1724383;82;21185;-84
2021/04/25 06:20:22;;;;;;;9.30;5.00;;;;;;;8.12;40.63;100497.17;1717279;81;21178;-85
2021/04/25 06:22:49;;;;;;;8.85;4.47;;;;;;;8.07;38.02;100499.38;1716010;83;21243;-83
2021/04/25 06:25:20;;;;;;;8.93;4.53;;;;;;;8.24;37.83;100503.19;1717068;81;21192;-84
2021/04/25 06:27:49;;;;;;;11.30;5.53;;;;;;;8.34;37.82;100500.59;1693794;83;23283;-82
2021/04/25 06:30:17;;;;;;;9.90;4.97;;;;;;;8.30;37.91;100498.72;1700598;83;21181;-82
2021/04/25 06:32:47;;;;;;;9.85;4.72;;;;;;;8.37;36.90;100498.52;1716130;83;21221;-83
2021/04/25 06:35:17;;;;;;;11.35;5.05;;;;;;;8.46;36.86;100495.61;1715076;82;22074;-83
2021/04/25 06:37:46;;;;;;;9.43;4.80;;;;;;;8.67;37.57;100493.36;1703698;82;21246;-84
2021/04/25 06:40:16;;;;;;;12.15;5.45;;;;;;;8.74;37.21;100498.45;1696076;81;21239;-83
2021/04/25 06:42:48;;;;;;;10.80;5.90;;;;;;;8.50;39.19;100495.70;1679824;83;21208;-84
2021/04/25 06:45:18;;;;;;;12.78;6.28;;;;;;;8.36;39.82;100496.87;1717992;82;21092;-82
2021/04/25 06:47:47;;;;;;;11.48;5.72;;;;;;;8.52;38.99;100493.75;1694113;83;21412;-86
2021/04/25 06:50:17;;;;;;;10.05;5.17;;;;;;;8.63;38.49;100491.50;1721005;82;21226;-84
2021/04/25 06:52:46;;;;;;;11.15;5.25;;;;;;;8.78;37.49;100494.59;1684195;83;21209;-87
2021/04/25 06:55:19;;;;;;;10.75;4.97;;;;;;;8.75;36.73;100493.54;1712040;82;21156;-86
2021/04/25 06:57:50;;;;;;;7.83;4.17;;;;;;;8.83;36.80;100495.50;1698229;83;21199;-83
2021/04/25 07:00:24;;;;;;;7.70;3.58;;;;;;;8.97;35.81;100497.73;1716536;82;22313;-85
2021/04/25 07:02:55;;;;;;;5.97;2.83;;;;;;;8.56;32.92;100504.38;1715106;82;21222;-83
2021/04/25 07:05:21;;;;;;;4.33;2.17;;;;;;;8.75;32.68;100500.12;1719784;82;21221;-83
2021/04/25 07:07:47;;;;;;;4.67;1.72;;;;;;;8.78;29.93;100507.27;1704502;82;27099;-83
2021/04/25 07:10:13;;;;;;;4.15;2.12;;;;;;;8.93;30.66;100501.13;1721742;82;21164;-85
2021/04/25 07:12:39;;;;;;;3.75;1.80;;;;;;;9.10;30.26;100498.77;1723397;81;28393;-84
2021/04/25 07:15:08;;;;;;;2.90;1.55;;;;;;;9.27;31.24;100500.70;1714885;81;27976;-83
2021/04/25 07:17:36;;;;;;;3.08;1.70;;;;;;;9.37;29.80;100494.59;1716299;81;21298;-84
2021/04/25 07:20:06;;;;;;;;;;;;;;;9.32;29.30;100498.50;1739146;81;21195;-82
2021/04/25 07:22:33;;;;;;;3.67;1.42;;;;;;;9.33;28.29;100495.38;1727616;82;20276;-83
2021/04/25 07:24:59;;;;;;;4.60;1.50;;;;;;;9.43;29.27;100497.99;1727652;82;28243;-83
2021/04/25 07:27:25;;;;;;;2.42;1.40;;;;;;;9.42;28.77;100495.85;1730619;82;26848;-83
2021/04/25 07:29:53;;;;;;;2.70;1.50;;;;;;;9.38;28.90;100497.59;1733113;82;21382;-84
2021/04/25 07:32:20;;;;;;;;;;;;;;;9.22;28.03;100503.42;1734046;82;21142;-85
2021/04/25 07:34:52;;;;;;;6.33;1.50;;;;;;;9.43;28.01;100496.21;1730167;81;20253;-84
2021/04/25 07:37:19;;;;;;;2.90;1.50;;;;;;;9.49;28.27;100494.80;1731758;82;21066;-83
2021/04/25 07:39:45;;;;;;;3.08;1.30;;;;;;;9.61;28.60;100497.63;1726115;80;21188;-84
2021/04/25 07:42:14;;;;;;;2.22;1.40;;;;;;;9.72;28.10;100499.77;1730624;80;21171;-83
2021/04/25 07:44:43;;;;;;;3.45;1.32;;;;;;;9.83;28.12;100499.59;1730803;82;21250;-84
2021/04/25 07:47:14;;;;;;;2.62;1.25;;;;;;;9.88;27.92;100497.36;1727165;82;21182;-84
2021/04/25 07:49:39;;;;;;;2.67;1.32;;;;;;;9.81;28.24;100504.19;1735062;82;21194;-84
2021/04/25 07:52:10;;;;;;;2.12;1.35;;;;;;;9.78;28.02;100499.20;1732955;82;27116;-86
2021/04/25 07:54:37;;;;;;;3.30;1.50;;;;;;;9.44;27.64;100495.22;1729245;81;21207;-84
2021/04/25 07:57:04;;;;;;;2.10;1.42;;;;;;;9.36;28.27;100496.91;1732299;81;21467;-85
2021/04/25 07:59:32;;;;;;;2.70;1.50;;;;;;;9.36;28.39;100504.81;1731439;82;21213;-83
2021/04/25 08:01:59;;;;;;;2.35;1.40;;;;;;;9.51;28.15;100496.33;1732543;81;21218;-82
2021/04/25 08:04:25;;;;;;;2.10;1.30;;;;;;;9.52;28.05;100490.09;1736862;81;21561;-84
2021/04/25 08:06:54;;;;;;;3.67;1.60;;;;;;;9.48;28.75;100487.87;1711835;81;22206;-83
2021/04/25 08:09:21;;;;;;;3.02;1.60;;;;;;;9.57;28.27;100492.31;1732866;81;21249;-82
2021/04/25 08:11:47;;;;;;;4.58;2.00;;;;;;;9.41;28.42;100495.99;1731719;81;21221;-84
2021/04/25 08:14:15;;;;;;;3.27;1.70;;;;;;;9.05;28.90;100494.41;1736209;81;21167;-83
2021/04/25 08:16:43;;;;;;;3.00;1.50;;;;;;;8.66;29.22;100489.09;1733952;81;21659;-84
2021/04/25 08:19:14;;;;;;;5.85;1.70;;;;;;;8.79;29.26;100489.65;1701955;82;21206;-86
2021/04/25 08:21:41;;;;;;;3.35;1.40;;;;;;;8.88;29.51;100490.14;1696237;83;21249;-82
2021/04/25 08:24:11;;;;;;;1.90;1.40;;;;;;;8.89;29.14;100485.73;1664409;82;21238;-85
2021/04/25 08:26:41;;;;;;;3.85;1.50;;;;;;;8.81;29.70;100494.31;1715900;82;38876;-84
2021/04/25 08:29:08;;;;;;;4.45;1.70;;;;;;;8.96;27.25;100491.63;1715053;82;21193;-82
2021/04/25 08:31:39;;;;;;;2.50;1.57;;;;;;;8.96;27.45;100489.00;1716062;82;21751;-85
2021/04/25 08:34:05;;;;;;;2.62;1.27;;;;;;;9.13;26.72;100489.27;1712853;82;21277;-82
2021/04/25 08:36:32;;;;;;;2.60;1.35;;;;;;;9.40;26.38;100488.58;1716097;82;25898;-85
2021/04/25 08:39:01;;;;;;;2.37;1.25;;;;;;;9.18;27.08;100489.67;1714256;82;23975;-84
2021/04/25 08:41:30;;;;;;;2.17;1.30;;;;;;;9.13;26.63;100486.64;1713598;81;21618;-83
2021/04/25 08:43:58;;;;;;;1.67;1.10;;;;;;;8.84;26.47;100483.97;1721614;81;21325;-85
2021/04/25 08:46:26;;;;;;;2.58;1.40;;;;;;;9.04;26.79;100495.36;1714990;82;21247;-85
2021/04/25 08:48:54;;;;;;;1.85;1.00;;;;;;;9.34;26.60;100482.05;1719207;82;21023;-84
2021/04/25 08:51:20;;;;;;;;;;;;;;;9.52;26.82;100481.33;1719641;82;21136;-85
2021/04/25 08:53:49;;;;;;;3.25;1.30;;;;;;;9.62;25.49;100467.66;1716494;82;20193;-87
2021/04/25 08:56:16;;;;;;;2.98;1.50;;;;;;;9.73;26.16;100472.44;1712874;83;21230;-83
2021/04/25 08:58:48;;;;;;;3.90;1.37;;;;;;;9.90;25.46;100458.50;1717214;82;21166;-83
2021/04/25 09:01:19;;;;;;;2.30;1.15;;;;;;;9.96;25.48;100465.83;1716028;81;21028;-83
2021/04/25 09:03:45;;;;;;;2.05;0.95;;;;;;;9.76;24.99;100476.11;1712015;82;21217;-84
2021/04/25 09:06:12;;;;;;;2.00;1.00;;;;;;;9.80;24.35;100470.87;1718282;82;20923;-83
2021/04/25 09:08:45;;;;;;;;;;;;;;;9.92;24.71;100459.67;1719175;81;21254;-83
2021/04/25 09:11:42;;;;;;;2.37;1.15;;;;;;;10.23;25.36;100449.67;1718242;83;20194;-83
2021/04/25 09:14:26;;;;;;;2.25;1.30;;;;;;;10.05;25.04;100453.09;1715237;83;21647;-84
2021/04/25 09:17:05;;;;;;;2.75;1.30;;;;;;;9.90;25.86;100450.58;1717354;83;21183;-87
2021/04/25 09:20:03;;;;;;;3.62;1.20;;;;;;;10.04;25.74;100450.10;1716964;82;21162;-82
2021/04/25 09:22:45;;;;;;;4.40;1.47;;;;;;;10.16;25.52;100443.30;1721130;81;21171;-84
2021/04/25 09:25:18;;;;;;;3.77;1.30;;;;;;;9.86;24.89;100451.83;1723685;81;21216;-86
2021/04/25 09:27:53;;;;;;;3.85;1.30;;;;;;;9.77;25.65;100440.36;1721022;82;21054;-88
2021/04/25 09:30:30;;;;;;;1.92;1.10;;;;;;;9.91;25.48;100439.03;1722324;82;21657;-83
2021/04/25 09:33:08;;;;;;;2.30;1.15;;;;;;;9.95;24.97;100439.59;1719019;82;21229;-84
2021/04/25 09:35:37;;;;;;;3.55;1.15;;;;;;;10.06;24.93;100440.22;1717436;83;21230;-84
2021/04/25 09:38:12;;;;;;;3.08;1.20;;;;;;;10.32;24.60;100424.22;1719343;82;21567;-81
2021/04/25 09:40:44;;;;;;;1.70;1.10;;;;;;;10.51;24.81;100429.89;1719256;81;21110;-83
2021/04/25 09:43:13;;;;;;;4.05;1.30;;;;;;;10.35;24.42;100423.95;1719593;82;21216;-82
2021/04/25 09:45:54;;;;;;;3.22;1.30;;;;;;;10.19;24.13;100444.33;1718585;82;21167;-86
2021/04/25 09:48:25;;;;;;;1.92;1.10;;;;;;;10.08;23.76;100430.02;1722183;82;21239;-82
2021/04/25 09:51:24;;;;;;;3.12;1.20;;;;;;;10.18;23.80;100430.81;1718944;81;21188;-82
2021/04/25 09:53:56;;;;;;;1.65;1.20;;;;;;;10.50;24.14;100426.90;1719537;82;21178;-86
2021/04/25 09:56:44;;;;;;;2.98;1.10;;;;;;;10.54;24.03;100421.67;1715435;82;21221;-86
2021/04/25 09:59:09;;;;;;;2.15;1.20;;;;;;;10.65;24.05;100424.09;1716794;82;21222;-84
2021/04/25 10:01:44;;;;;;;2.58;1.30;;;;;;;10.75;24.21;100414.30;1698091;82;21233;-85
2021/04/25 10:04:37;;;;;;;2.45;1.25;;;;;;;10.90;24.38;100421.69;1716994;81;21631;-85
2021/04/25 10:07:10;;;;;;;3.00;1.47;;;;;;;10.77;24.41;100418.92;1694803;83;21666;-81
2021/04/25 10:09:36;;;;;;;4.35;1.87;;;;;;;10.89;24.17;100422.66;1723623;82;21186;-84
2021/04/25 10:12:03;;;;;;;2.62;1.22;;;;;;;11.07;24.61;100423.48;1721914;81;20924;-85
2021/04/25 10:14:33;;;;;;;2.35;1.35;;;;;;;11.21;24.57;100419.45;1722140;82;21186;-84
2021/04/25 10:17:02;;;;;;;3.33;1.70;;;;;;;11.27;24.57;100417.52;1719743;81;21221;-87
2021/04/25 10:19:28;;;;;;;4.55;1.75;;;;;;;11.40;24.60;100413.14;1722379;82;21649;-84
2021/04/25 10:21:55;;;;;;;3.02;1.50;;;;;;;11.39;24.13;100419.44;1717621;82;21146;-85
2021/04/25 10:24:25;;;;;;;;;;;;;;;10.92;24.13;100422.35;1712668;83;21190;-86
2021/04/25 10:26:58;;;;;;;2.10;1.20;;;;;;;10.77;24.58;100416.78;1715152;82;20672;-87
2021/04/25 10:29:32;;;;;;;2.50;1.30;;;;;;;10.86;25.26;100418.99;1719306;83;21226;-87
2021/04/25 10:32:00;;;;;;;3.15;1.40;;;;;;;10.69;24.91;100419.33;1699958;82;21214;-83
2021/04/25 10:34:26;;;;;;;2.95;1.40;;;;;;;10.66;24.46;100431.05;1718031;82;21243;-85
2021/04/25 10:36:56;;;;;;;3.05;1.30;;;;;;;10.69;24.32;100428.10;1694574;83;20950;-82
2021/04/25 10:39:52;;;;;;;2.00;1.25;;;;;;;10.22;25.14;100431.70;1712341;83;21368;-82
2021/04/25 10:42:29;;;;;;;3.02;1.40;;;;;;;10.31;24.70;100422.05;1696133;82;21654;-82
2021/04/25 10:45:04;;;;;;;1.87;1.20;;;;;;;10.43;24.73;100427.17;1717246;82;29638;-83
2021/04/25 10:47:37;;;;;;;1.85;1.27;;;;;;;10.67;24.52;100421.30;1722803;82;21363;-84
2021/04/25 10:50:26;;;;;;;2.00;1.17;;;;;;;10.66;24.16;100421.80;1719801;82;21233;-83
2021/04/25 10:52:53;;;;;;;2.83;1.02;;;;;;;10.68;24.48;100422.97;1718716;83;21057;-82
2021/04/25 10:55:32;;;;;;;;;;;;;;;10.59;23.70;100428.65;1718527;82;21216;-83
2021/04/25 10:58:09;;;;;;;2.25;1.22;;;;;;;10.62;23.96;100410.36;1716447;82;20277;-83
2021/04/25 11:00:41;;;;;;;2.87;1.17;;;;;;;10.76;24.38;100423.86;1692724;83;21237;-82
2021/04/25 11:03:15;;;;;;;2.33;1.17;;;;;;;10.82;24.38;100419.80;1700246;82;21128;-83
2021/04/25 11:05:50;;;;;;;2.25;1.20;;;;;;;10.92;23.83;100429.80;1696904;83;21758;-83
2021/04/25 11:08:33;;;;;;;2.00;1.00;;;;;;;10.95;24.18;100423.37;1719429;82;21063;-81
2021/04/25 11:11:10;;;;;;;2.12;1.10;;;;;;;10.89;24.33;100426.62;1717121;83;21182;-79
2021/04/25 11:16:20;;;;;;;3.87;1.50;;;;;;;10.82;24.13;100420.30;1719499;81;21050;-82
2021/04/25 11:19:09;;;;;;;1.77;1.00;;;;;;;10.44;24.84;100442.86;1721354;82;21236;-82
2021/04/25 11:21:54;;;;;;;1.70;1.00;;;;;;;10.48;24.85;100442.07;1719079;81;21085;-79
2021/04/25 11:24:27;;;;;;;3.37;1.10;;;;;;;10.21;24.84;100451.64;1721418;82;21214;-81
2021/04/25 11:26:55;;;;;;;2.58;1.17;;;;;;;10.36;24.88;100442.28;1721007;83;21210;-86
2021/04/25 11:29:41;;;;;;;1.98;1.10;;;;;;;10.46;25.53;100440.08;1718105;83;21150;-82
2021/04/25 11:32:07;;;;;;;2.67;1.30;;;;;;;10.59;25.80;100451.09;1712413;83;21196;-82
2021/04/25 11:34:42;;;;;;;1.60;1.10;;;;;;;10.77;26.17;100444.02;1718916;83;27346;-81
2021/04/25 11:37:22;;;;;;;2.77;1.50;;;;;;;10.52;27.72;100450.05;1718806;83;21193;-79
2021/04/25 11:39:53;;;;;;;8.48;1.82;;;;;;;10.14;30.88;100454.51;1715567;83;21185;-77
2021/04/25 11:42:32;;;;;;;1.95;1.25;;;;;;;10.02;31.42;100481.55;1719309;81;21785;-80